»·PEaware :: N92131 KSNA-KCRQ

N92131 :: KSNA-KCRQ

FLIGHT INFORMATION

Flight Status: Arrived
Operator: Privately registered:
United States
More flights under this callsign
Pilot: Manhattan Flying Club (7137)
Aircraft: CESSNA 172 SKYHAWK
(C172)
More flights by this aircraft type
Origin: KSNA John Wayne-Orange Co
United States
Destination: KCRQ McClellan-Palomar
United States
More flights between these airports :: More routes between these airports
Route: +V23 OCN
File this flight plan on PilotEdge
Remarks: I-2 RATING
Altitude:
(Current/Filed)
5,000ft
Speed:
(Current/Filed)
120kts
Departed: 13-Jan-18 02:43 PM
Arrived: 13-Jan-18 03:24 PM
Distance/Time
Traveled:
1nm/0:41
Distance/Time
To Go:
Arrived

Flight Plot

Page will automatically refresh every two minutes.


Map Options




Map Legend


Flown Route
Filed Route
Departure Airport
Arrival Airport
Navaid (VOR, NDB)
Fix

Horizontal Profiles

Position Reports

Time Latitude Longitude Heading Altitude Ground
Speed
13-Jan-18 14:33 33.676169 -117.870870 214 59ft 0kts
13-Jan-18 14:34 33.676169 -117.870870 214 59ft 0kts
13-Jan-18 14:35 33.676169 -117.870870 214 59ft 0kts
13-Jan-18 14:36 33.676169 -117.870870 214 59ft 0kts
13-Jan-18 14:37 33.676169 -117.870870 214 59ft 0kts
13-Jan-18 14:38 33.676169 -117.870870 214 59ft 0kts
13-Jan-18 14:39 33.676169 -117.870870 214 59ft 0kts
13-Jan-18 14:40 33.675954 -117.870837 122 59ft 0kts
13-Jan-18 14:41 33.675954 -117.870837 122 59ft 0kts
13-Jan-18 14:42 33.675954 -117.870837 122 59ft 0kts
13-Jan-18 14:43 33.675954 -117.870837 122 59ft 0kts
13-Jan-18 14:44 33.675954 -117.870837 122 59ft 0kts
13-Jan-18 14:45 33.676289 -117.869955 29 59ft 18kts
13-Jan-18 14:46 33.681071 -117.867108 35 59ft 15kts
13-Jan-18 14:47 33.681242 -117.866468 114 59ft 0kts
13-Jan-18 14:48 33.681242 -117.866468 114 59ft 0kts
13-Jan-18 14:49 33.674905 -117.869305 207 150ft 77kts
13-Jan-18 14:50 33.655698 -117.878366 187 1271ft 77kts
13-Jan-18 14:51 33.630574 -117.882243 187 2161ft 99kts
13-Jan-18 14:52 33.605858 -117.886080 187 3034ft 81kts
13-Jan-18 14:53 33.586295 -117.889067 187 3863ft 67kts
13-Jan-18 14:54 33.564428 -117.887826 129 4510ft 95kts
13-Jan-18 14:55 33.548827 -117.860254 135 5016ft 116kts
13-Jan-18 14:56 33.533556 -117.822913 113 5114ft 132kts
13-Jan-18 14:57 33.518825 -117.782022 113 5109ft 134kts
13-Jan-18 14:58 33.504822 -117.740611 93 5100ft 134kts
13-Jan-18 14:59 33.492348 -117.698352 131 4998ft 137kts
13-Jan-18 15:00 33.463446 -117.670418 142 5093ft 128kts
13-Jan-18 15:01 33.430703 -117.665066 151 5106ft 135kts
13-Jan-18 15:02 33.407993 -117.630486 118 5116ft 129kts
13-Jan-18 15:03 33.386276 -117.596486 138 4943ft 130kts
13-Jan-18 15:04 33.361066 -117.567895 136 5009ft 122kts
13-Jan-18 15:05 33.336232 -117.539472 136 5008ft 123kts
13-Jan-18 15:06 33.313254 -117.513169 136 5008ft 124kts
13-Jan-18 15:07 33.289773 -117.486288 136 5008ft 124kts
13-Jan-18 15:08 33.264889 -117.457799 136 5008ft 124kts
13-Jan-18 15:09 33.240031 -117.429336 136 5008ft 124kts
13-Jan-18 15:10 33.215196 -117.400898 136 5008ft 124kts
13-Jan-18 15:11 33.190310 -117.372408 136 5006ft 118kts
13-Jan-18 15:12 33.174723 -117.345873 83 5049ft 112kts
13-Jan-18 15:13 33.177477 -117.317900 83 5023ft 126kts
13-Jan-18 15:14 33.181240 -117.280201 83 5009ft 127kts
13-Jan-18 15:15 33.185424 -117.238327 83 5009ft 127kts
13-Jan-18 15:16 33.189608 -117.196509 83 5009ft 127kts
13-Jan-18 15:17 33.193793 -117.154730 83 5009ft 127kts
13-Jan-18 15:18 33.197966 -117.113116 83 5009ft 125kts
13-Jan-18 15:19 33.202132 -117.071625 83 5009ft 125kts
13-Jan-18 15:20 33.206256 -117.030598 83 5009ft 125kts
13-Jan-18 15:21 33.194071 -117.001214 190 4974ft 128kts
13-Jan-18 15:22 33.179382 -117.040727 246 4371ft 142kts
13-Jan-18 15:23 33.157407 -117.076477 270 3809ft 134kts
13-Jan-18 15:24 33.155126 -117.117458 259 3051ft 113kts
13-Jan-18 15:25 33.149266 -117.148929 256 2450ft 95kts
13-Jan-18 15:26 33.145016 -117.177148 260 1782ft 89kts
13-Jan-18 15:27 33.140478 -117.204586 257 1586ft 82kts
13-Jan-18 15:28 33.136257 -117.231599 259 1116ft 82kts
13-Jan-18 15:29 33.132054 -117.256882 260 682ft 72kts
13-Jan-18 15:30 33.128796 -117.276949 257 334ft 28kts
13-Jan-18 15:31 33.127590 -117.279560 140 334ft 0kts
13-Jan-18 15:32 33.127725 -117.278201 78 334ft 13kts
13-Jan-18 15:33 33.127566 -117.276214 129 334ft 3kts
13-Jan-18 15:34 33.127556 -117.276197 120 334ft 0kts
13-Jan-18 15:35 33.127556 -117.276197 120 334ft 0kts
13-Jan-18 15:36 33.127556 -117.276197 120 334ft 0kts
13-Jan-18 15:37 33.127556 -117.276197 120 334ft 0kts
13-Jan-18 15:38 33.127556 -117.276197 120 334ft 0kts
13-Jan-18 15:39 33.127556 -117.276197 120 334ft 0kts
13-Jan-18 15:40 33.127556 -117.276197 120 334ft 0kts
13-Jan-18 15:41 33.127556 -117.276197 120 334ft 0kts
13-Jan-18 15:42 33.127556 -117.276197 120 334ft 0kts
13-Jan-18 15:43 33.127556 -117.276197 120 334ft 0kts
13-Jan-18 15:44 33.666765 -117.871815 316 59ft 0kts

Navigation Log

Ident Type
1. KSNA Airport
2. OCN Navaid
3. KCRQ Airport